<?xml version="1.0" encoding="UTF-8" standalone="no" ?>
<gpx xmlns="http://www.topografix.com/GPX/1/1" xmlns:xsi="http://www.w3.org/2001/XMLSchema-instance" xsi:schemaLocation="http://www.topografix.com/GPX/1/1 http://www.topografix.com/GPX/1/1/gpx.xsd" version="1.1" creator="VisuGPX - https://www.visugpx.com">
  <metadata>
    <name>BRC Douce avec Jean Pierre - Faisanderie Forêt de Senart </name>
    <desc><![CDATA[A départ du parking de la Faisanderie, boucle vers le golf d'Etiolle. 

Pas de dénivelé. En hiver, une partie très boueuse (en 50 m) le long du golf ]]></desc>
  </metadata>
  <trk>
    <name><![CDATA[BRC Bol d’air avec Jean Pierre Faisanderie Forêt de Senart ]]></name>
    <extensions>
      <line xmlns="http://www.topografix.com/GPX/gpx_style/0/2">
        <color>0000FF</color>
        <width>4</width>
      </line>
    </extensions>
    <trkseg>
      <trkpt lat="48.65555" lon="2.49301">
        <ele>82.8</ele>
        <time>2024-03-21T14:08:17+01:00</time>
      </trkpt>
      <trkpt lat="48.65629" lon="2.49281">
        <ele>83</ele>
      </trkpt>
      <trkpt lat="48.6566" lon="2.49231">
        <ele>82.1</ele>
      </trkpt>
      <trkpt lat="48.65647" lon="2.49076">
        <ele>84</ele>
        <time>2024-03-21T14:08:44+01:00</time>
      </trkpt>
      <trkpt lat="48.65642" lon="2.49041">
        <ele>83</ele>
        <time>2024-03-21T14:09:04+01:00</time>
      </trkpt>
      <trkpt lat="48.6564" lon="2.49007">
        <ele>83</ele>
        <time>2024-03-21T14:09:28+01:00</time>
      </trkpt>
      <trkpt lat="48.65637" lon="2.48973">
        <ele>83</ele>
        <time>2024-03-21T14:09:50+01:00</time>
      </trkpt>
      <trkpt lat="48.65633" lon="2.4894">
        <ele>82</ele>
        <time>2024-03-21T14:10:13+01:00</time>
      </trkpt>
      <trkpt lat="48.6563" lon="2.48906">
        <ele>82</ele>
        <time>2024-03-21T14:10:34+01:00</time>
      </trkpt>
      <trkpt lat="48.65611" lon="2.48886">
        <ele>83</ele>
        <time>2024-03-21T14:11:03+01:00</time>
      </trkpt>
      <trkpt lat="48.65599" lon="2.48857">
        <ele>83</ele>
        <time>2024-03-21T14:11:27+01:00</time>
      </trkpt>
      <trkpt lat="48.65602" lon="2.48822">
        <ele>83</ele>
        <time>2024-03-21T14:11:54+01:00</time>
      </trkpt>
      <trkpt lat="48.65598" lon="2.48787">
        <ele>83</ele>
        <time>2024-03-21T14:12:18+01:00</time>
      </trkpt>
      <trkpt lat="48.65591" lon="2.48755">
        <ele>83</ele>
        <time>2024-03-21T14:12:41+01:00</time>
      </trkpt>
      <trkpt lat="48.6559" lon="2.48719">
        <ele>82</ele>
        <time>2024-03-21T14:13:04+01:00</time>
      </trkpt>
      <trkpt lat="48.65594" lon="2.48684">
        <ele>83</ele>
        <time>2024-03-21T14:13:31+01:00</time>
      </trkpt>
      <trkpt lat="48.65605" lon="2.48654">
        <ele>82</ele>
        <time>2024-03-21T14:13:54+01:00</time>
      </trkpt>
      <trkpt lat="48.65611" lon="2.48621">
        <ele>82</ele>
        <time>2024-03-21T14:14:15+01:00</time>
      </trkpt>
      <trkpt lat="48.65619" lon="2.48589">
        <ele>83</ele>
        <time>2024-03-21T14:14:40+01:00</time>
      </trkpt>
      <trkpt lat="48.65631" lon="2.4856">
        <ele>84</ele>
        <time>2024-03-21T14:15:05+01:00</time>
      </trkpt>
      <trkpt lat="48.65646" lon="2.48534">
        <ele>83</ele>
        <time>2024-03-21T14:15:26+01:00</time>
      </trkpt>
      <trkpt lat="48.65636" lon="2.48502">
        <ele>83</ele>
        <time>2024-03-21T14:16:02+01:00</time>
      </trkpt>
      <trkpt lat="48.65613" lon="2.48498">
        <ele>84</ele>
        <time>2024-03-21T14:16:31+01:00</time>
      </trkpt>
      <trkpt lat="48.6559" lon="2.48502">
        <ele>84</ele>
        <time>2024-03-21T14:16:51+01:00</time>
      </trkpt>
      <trkpt lat="48.65568" lon="2.48513">
        <ele>84</ele>
        <time>2024-03-21T14:17:21+01:00</time>
      </trkpt>
      <trkpt lat="48.65545" lon="2.48521">
        <ele>83</ele>
        <time>2024-03-21T14:17:52+01:00</time>
      </trkpt>
      <trkpt lat="48.65522" lon="2.48513">
        <ele>82</ele>
        <time>2024-03-21T14:18:17+01:00</time>
      </trkpt>
      <trkpt lat="48.65504" lon="2.48491">
        <ele>82</ele>
        <time>2024-03-21T14:18:42+01:00</time>
      </trkpt>
      <trkpt lat="48.6548" lon="2.48497">
        <ele>83</ele>
        <time>2024-03-21T14:19:06+01:00</time>
      </trkpt>
      <trkpt lat="48.65458" lon="2.48491">
        <ele>82</ele>
        <time>2024-03-21T14:19:31+01:00</time>
      </trkpt>
      <trkpt lat="48.65437" lon="2.48478">
        <ele>83</ele>
        <time>2024-03-21T14:20:09+01:00</time>
      </trkpt>
      <trkpt lat="48.65415" lon="2.48491">
        <ele>83</ele>
        <time>2024-03-21T14:20:36+01:00</time>
      </trkpt>
      <trkpt lat="48.65392" lon="2.48491">
        <ele>82</ele>
        <time>2024-03-21T14:20:58+01:00</time>
      </trkpt>
      <trkpt lat="48.65386" lon="2.48458">
        <ele>83</ele>
        <time>2024-03-21T14:21:29+01:00</time>
      </trkpt>
      <trkpt lat="48.65379" lon="2.48423">
        <ele>82</ele>
        <time>2024-03-21T14:21:51+01:00</time>
      </trkpt>
      <trkpt lat="48.65379" lon="2.48388">
        <ele>82</ele>
        <time>2024-03-21T14:22:21+01:00</time>
      </trkpt>
      <trkpt lat="48.65398" lon="2.48368">
        <ele>82</ele>
        <time>2024-03-21T14:22:50+01:00</time>
      </trkpt>
      <trkpt lat="48.65408" lon="2.48336">
        <ele>83</ele>
        <time>2024-03-21T14:23:18+01:00</time>
      </trkpt>
      <trkpt lat="48.65418" lon="2.48305">
        <ele>83</ele>
        <time>2024-03-21T14:23:59+01:00</time>
      </trkpt>
      <trkpt lat="48.65424" lon="2.48271">
        <ele>83</ele>
        <time>2024-03-21T14:24:41+01:00</time>
      </trkpt>
      <trkpt lat="48.65423" lon="2.48237">
        <ele>84</ele>
        <time>2024-03-21T14:25:06+01:00</time>
      </trkpt>
      <trkpt lat="48.65431" lon="2.48203">
        <ele>84</ele>
        <time>2024-03-21T14:25:38+01:00</time>
      </trkpt>
      <trkpt lat="48.65431" lon="2.48168">
        <ele>84</ele>
        <time>2024-03-21T14:26:02+01:00</time>
      </trkpt>
      <trkpt lat="48.65422" lon="2.48135">
        <ele>83</ele>
        <time>2024-03-21T14:26:25+01:00</time>
      </trkpt>
      <trkpt lat="48.65419" lon="2.481">
        <ele>83</ele>
        <time>2024-03-21T14:26:49+01:00</time>
      </trkpt>
      <trkpt lat="48.65416" lon="2.48065">
        <ele>84</ele>
        <time>2024-03-21T14:27:17+01:00</time>
      </trkpt>
      <trkpt lat="48.65406" lon="2.48033">
        <ele>84</ele>
        <time>2024-03-21T14:31:16+01:00</time>
      </trkpt>
      <trkpt lat="48.65396" lon="2.48002">
        <ele>82</ele>
        <time>2024-03-21T14:32:04+01:00</time>
      </trkpt>
      <trkpt lat="48.65373" lon="2.47995">
        <ele>83</ele>
        <time>2024-03-21T14:32:27+01:00</time>
      </trkpt>
      <trkpt lat="48.65356" lon="2.47972">
        <ele>84</ele>
        <time>2024-03-21T14:32:51+01:00</time>
      </trkpt>
      <trkpt lat="48.65337" lon="2.47954">
        <ele>84</ele>
        <time>2024-03-21T14:33:19+01:00</time>
      </trkpt>
      <trkpt lat="48.65327" lon="2.47921">
        <ele>86</ele>
        <time>2024-03-21T14:33:53+01:00</time>
      </trkpt>
      <trkpt lat="48.65308" lon="2.47903">
        <ele>82</ele>
        <time>2024-03-21T14:34:30+01:00</time>
      </trkpt>
      <trkpt lat="48.65286" lon="2.47896">
        <ele>83</ele>
        <time>2024-03-21T14:34:57+01:00</time>
      </trkpt>
      <trkpt lat="48.65265" lon="2.4791">
        <ele>83</ele>
        <time>2024-03-21T14:35:22+01:00</time>
      </trkpt>
      <trkpt lat="48.65255" lon="2.47942">
        <ele>81</ele>
        <time>2024-03-21T14:35:59+01:00</time>
      </trkpt>
      <trkpt lat="48.65244" lon="2.47971">
        <ele>82</ele>
        <time>2024-03-21T14:36:27+01:00</time>
      </trkpt>
      <trkpt lat="48.65224" lon="2.4799">
        <ele>85</ele>
        <time>2024-03-21T14:36:48+01:00</time>
      </trkpt>
      <trkpt lat="48.65208" lon="2.48016">
        <ele>83</ele>
        <time>2024-03-21T14:37:14+01:00</time>
      </trkpt>
      <trkpt lat="48.65186" lon="2.48025">
        <ele>83</ele>
        <time>2024-03-21T14:37:41+01:00</time>
      </trkpt>
      <trkpt lat="48.65175" lon="2.47993">
        <ele>82</ele>
        <time>2024-03-21T14:39:51+01:00</time>
      </trkpt>
      <trkpt lat="48.65167" lon="2.47961">
        <ele>83</ele>
        <time>2024-03-21T14:40:30+01:00</time>
      </trkpt>
      <trkpt lat="48.65157" lon="2.47928">
        <ele>83</ele>
        <time>2024-03-21T14:40:57+01:00</time>
      </trkpt>
      <trkpt lat="48.65148" lon="2.47896">
        <ele>84</ele>
        <time>2024-03-21T14:41:28+01:00</time>
      </trkpt>
      <trkpt lat="48.65141" lon="2.47861">
        <ele>81</ele>
        <time>2024-03-21T14:41:59+01:00</time>
      </trkpt>
      <trkpt lat="48.65133" lon="2.47828">
        <ele>83</ele>
        <time>2024-03-21T14:42:27+01:00</time>
      </trkpt>
      <trkpt lat="48.65128" lon="2.47794">
        <ele>84</ele>
        <time>2024-03-21T14:42:52+01:00</time>
      </trkpt>
      <trkpt lat="48.6512" lon="2.47762">
        <ele>84</ele>
        <time>2024-03-21T14:43:21+01:00</time>
      </trkpt>
      <trkpt lat="48.65112" lon="2.47729">
        <ele>84</ele>
        <time>2024-03-21T14:43:48+01:00</time>
      </trkpt>
      <trkpt lat="48.65104" lon="2.47695">
        <ele>84</ele>
        <time>2024-03-21T14:44:16+01:00</time>
      </trkpt>
      <trkpt lat="48.65094" lon="2.47662">
        <ele>84</ele>
        <time>2024-03-21T14:44:49+01:00</time>
      </trkpt>
      <trkpt lat="48.6509" lon="2.47628">
        <ele>87</ele>
        <time>2024-03-21T14:45:15+01:00</time>
      </trkpt>
      <trkpt lat="48.65078" lon="2.47598">
        <ele>87</ele>
        <time>2024-03-21T14:45:37+01:00</time>
      </trkpt>
      <trkpt lat="48.65071" lon="2.47565">
        <ele>84</ele>
        <time>2024-03-21T14:46:08+01:00</time>
      </trkpt>
      <trkpt lat="48.65066" lon="2.47531">
        <ele>86</ele>
        <time>2024-03-21T14:46:48+01:00</time>
      </trkpt>
      <trkpt lat="48.65052" lon="2.47504">
        <ele>83</ele>
        <time>2024-03-21T14:47:20+01:00</time>
      </trkpt>
      <trkpt lat="48.65045" lon="2.4747">
        <ele>85</ele>
        <time>2024-03-21T14:47:43+01:00</time>
      </trkpt>
      <trkpt lat="48.65041" lon="2.47436">
        <ele>84</ele>
        <time>2024-03-21T14:48:09+01:00</time>
      </trkpt>
      <trkpt lat="48.65031" lon="2.47405">
        <ele>84</ele>
        <time>2024-03-21T14:48:33+01:00</time>
      </trkpt>
      <trkpt lat="48.65024" lon="2.47372">
        <ele>84</ele>
        <time>2024-03-21T14:48:59+01:00</time>
      </trkpt>
      <trkpt lat="48.65015" lon="2.4734">
        <ele>84</ele>
        <time>2024-03-21T14:49:19+01:00</time>
      </trkpt>
      <trkpt lat="48.65009" lon="2.47305">
        <ele>84</ele>
        <time>2024-03-21T14:49:46+01:00</time>
      </trkpt>
      <trkpt lat="48.65" lon="2.47273">
        <ele>85</ele>
        <time>2024-03-21T14:50:08+01:00</time>
      </trkpt>
      <trkpt lat="48.65009" lon="2.47239">
        <ele>84</ele>
        <time>2024-03-21T14:50:39+01:00</time>
      </trkpt>
      <trkpt lat="48.65031" lon="2.47226">
        <ele>81</ele>
        <time>2024-03-21T14:51:04+01:00</time>
      </trkpt>
      <trkpt lat="48.65049" lon="2.47202">
        <ele>86</ele>
        <time>2024-03-21T14:51:32+01:00</time>
      </trkpt>
      <trkpt lat="48.65067" lon="2.47181">
        <ele>83</ele>
        <time>2024-03-21T14:51:57+01:00</time>
      </trkpt>
      <trkpt lat="48.65085" lon="2.47158">
        <ele>85</ele>
        <time>2024-03-21T14:52:28+01:00</time>
      </trkpt>
      <trkpt lat="48.65099" lon="2.47128">
        <ele>85</ele>
        <time>2024-03-21T14:52:54+01:00</time>
      </trkpt>
      <trkpt lat="48.65112" lon="2.47099">
        <ele>86</ele>
        <time>2024-03-21T14:55:36+01:00</time>
      </trkpt>
      <trkpt lat="48.65092" lon="2.47082">
        <ele>85</ele>
        <time>2024-03-21T14:56:18+01:00</time>
      </trkpt>
      <trkpt lat="48.65076" lon="2.47057">
        <ele>87</ele>
        <time>2024-03-21T14:56:44+01:00</time>
      </trkpt>
      <trkpt lat="48.65084" lon="2.47026">
        <ele>86</ele>
        <time>2024-03-21T14:57:16+01:00</time>
      </trkpt>
      <trkpt lat="48.65104" lon="2.47006">
        <ele>85</ele>
        <time>2024-03-21T14:57:46+01:00</time>
      </trkpt>
      <trkpt lat="48.65119" lon="2.4698">
        <ele>85</ele>
        <time>2024-03-21T14:58:13+01:00</time>
      </trkpt>
      <trkpt lat="48.65135" lon="2.46957">
        <ele>86</ele>
        <time>2024-03-21T14:58:40+01:00</time>
      </trkpt>
      <trkpt lat="48.65152" lon="2.46931">
        <ele>85</ele>
        <time>2024-03-21T14:59:05+01:00</time>
      </trkpt>
      <trkpt lat="48.65171" lon="2.46911">
        <ele>87</ele>
        <time>2024-03-21T14:59:27+01:00</time>
      </trkpt>
      <trkpt lat="48.65189" lon="2.4689">
        <ele>86</ele>
        <time>2024-03-21T14:59:50+01:00</time>
      </trkpt>
      <trkpt lat="48.65206" lon="2.46868">
        <ele>85</ele>
        <time>2024-03-21T15:00:12+01:00</time>
      </trkpt>
      <trkpt lat="48.65223" lon="2.46844">
        <ele>86</ele>
        <time>2024-03-21T15:00:34+01:00</time>
      </trkpt>
      <trkpt lat="48.65242" lon="2.46824">
        <ele>85</ele>
        <time>2024-03-21T15:00:58+01:00</time>
      </trkpt>
      <trkpt lat="48.65264" lon="2.46819">
        <ele>85</ele>
        <time>2024-03-21T15:01:26+01:00</time>
      </trkpt>
      <trkpt lat="48.65288" lon="2.46811">
        <ele>85</ele>
        <time>2024-03-21T15:01:55+01:00</time>
      </trkpt>
      <trkpt lat="48.65309" lon="2.468">
        <ele>86</ele>
        <time>2024-03-21T15:02:33+01:00</time>
      </trkpt>
      <trkpt lat="48.65331" lon="2.4679">
        <ele>85</ele>
        <time>2024-03-21T15:03:09+01:00</time>
      </trkpt>
      <trkpt lat="48.65352" lon="2.46801">
        <ele>85</ele>
        <time>2024-03-21T15:06:54+01:00</time>
      </trkpt>
      <trkpt lat="48.65375" lon="2.468">
        <ele>85</ele>
        <time>2024-03-21T15:09:01+01:00</time>
      </trkpt>
      <trkpt lat="48.65395" lon="2.46783">
        <ele>85</ele>
        <time>2024-03-21T15:11:06+01:00</time>
      </trkpt>
      <trkpt lat="48.65418" lon="2.46773">
        <ele>85</ele>
        <time>2024-03-21T15:11:36+01:00</time>
      </trkpt>
      <trkpt lat="48.6544" lon="2.4676">
        <ele>85</ele>
        <time>2024-03-21T15:12:45+01:00</time>
      </trkpt>
      <trkpt lat="48.65461" lon="2.46745">
        <ele>85</ele>
        <time>2024-03-21T15:13:26+01:00</time>
      </trkpt>
      <trkpt lat="48.65483" lon="2.46736">
        <ele>85</ele>
        <time>2024-03-21T15:14:47+01:00</time>
      </trkpt>
      <trkpt lat="48.65501" lon="2.46715">
        <ele>84</ele>
        <time>2024-03-21T15:15:56+01:00</time>
      </trkpt>
      <trkpt lat="48.65523" lon="2.46712">
        <ele>86</ele>
        <time>2024-03-21T15:16:17+01:00</time>
      </trkpt>
      <trkpt lat="48.65545" lon="2.46702">
        <ele>84</ele>
        <time>2024-03-21T15:16:46+01:00</time>
      </trkpt>
      <trkpt lat="48.65566" lon="2.46688">
        <ele>84</ele>
        <time>2024-03-21T15:17:15+01:00</time>
      </trkpt>
      <trkpt lat="48.6559" lon="2.46692">
        <ele>85</ele>
        <time>2024-03-21T15:17:34+01:00</time>
      </trkpt>
      <trkpt lat="48.65607" lon="2.46716">
        <ele>85</ele>
        <time>2024-03-21T15:18:00+01:00</time>
      </trkpt>
      <trkpt lat="48.65631" lon="2.46716">
        <ele>86</ele>
        <time>2024-03-21T15:18:29+01:00</time>
      </trkpt>
      <trkpt lat="48.65653" lon="2.467">
        <ele>86</ele>
        <time>2024-03-21T15:18:59+01:00</time>
      </trkpt>
      <trkpt lat="48.65675" lon="2.46695">
        <ele>85</ele>
        <time>2024-03-21T15:19:19+01:00</time>
      </trkpt>
      <trkpt lat="48.65698" lon="2.46695">
        <ele>85</ele>
        <time>2024-03-21T15:19:41+01:00</time>
      </trkpt>
      <trkpt lat="48.65721" lon="2.46697">
        <ele>85</ele>
        <time>2024-03-21T15:20:04+01:00</time>
      </trkpt>
      <trkpt lat="48.65745" lon="2.46696">
        <ele>85</ele>
        <time>2024-03-21T15:20:27+01:00</time>
      </trkpt>
      <trkpt lat="48.65767" lon="2.46697">
        <ele>84</ele>
        <time>2024-03-21T15:20:59+01:00</time>
      </trkpt>
      <trkpt lat="48.65789" lon="2.46686">
        <ele>84</ele>
        <time>2024-03-21T15:21:55+01:00</time>
      </trkpt>
      <trkpt lat="48.65807" lon="2.46666">
        <ele>84</ele>
        <time>2024-03-21T15:22:18+01:00</time>
      </trkpt>
      <trkpt lat="48.65822" lon="2.46638">
        <ele>84</ele>
        <time>2024-03-21T15:22:41+01:00</time>
      </trkpt>
      <trkpt lat="48.65845" lon="2.46641">
        <ele>84</ele>
        <time>2024-03-21T15:23:00+01:00</time>
      </trkpt>
      <trkpt lat="48.65868" lon="2.46651">
        <ele>84</ele>
        <time>2024-03-21T15:23:28+01:00</time>
      </trkpt>
      <trkpt lat="48.65886" lon="2.46629">
        <ele>84</ele>
        <time>2024-03-21T15:23:53+01:00</time>
      </trkpt>
      <trkpt lat="48.659" lon="2.466">
        <ele>84</ele>
        <time>2024-03-21T15:24:17+01:00</time>
      </trkpt>
      <trkpt lat="48.65923" lon="2.46597">
        <ele>85</ele>
        <time>2024-03-21T15:24:43+01:00</time>
      </trkpt>
      <trkpt lat="48.65946" lon="2.46593">
        <ele>84</ele>
        <time>2024-03-21T15:25:07+01:00</time>
      </trkpt>
      <trkpt lat="48.65968" lon="2.46579">
        <ele>83</ele>
        <time>2024-03-21T15:25:32+01:00</time>
      </trkpt>
      <trkpt lat="48.65982" lon="2.46553">
        <ele>84</ele>
        <time>2024-03-21T15:25:59+01:00</time>
      </trkpt>
      <trkpt lat="48.65998" lon="2.46525">
        <ele>83</ele>
        <time>2024-03-21T15:26:28+01:00</time>
      </trkpt>
      <trkpt lat="48.66013" lon="2.46496">
        <ele>84</ele>
        <time>2024-03-21T15:27:07+01:00</time>
      </trkpt>
      <trkpt lat="48.66026" lon="2.46468">
        <ele>83</ele>
        <time>2024-03-21T15:27:51+01:00</time>
      </trkpt>
      <trkpt lat="48.66049" lon="2.46461">
        <ele>83</ele>
        <time>2024-03-21T15:28:14+01:00</time>
      </trkpt>
      <trkpt lat="48.66073" lon="2.46452">
        <ele>84</ele>
        <time>2024-03-21T15:28:38+01:00</time>
      </trkpt>
      <trkpt lat="48.66091" lon="2.46431">
        <ele>83</ele>
        <time>2024-03-21T15:29:01+01:00</time>
      </trkpt>
      <trkpt lat="48.6611" lon="2.46411">
        <ele>83</ele>
        <time>2024-03-21T15:29:25+01:00</time>
      </trkpt>
      <trkpt lat="48.66127" lon="2.46382">
        <ele>83</ele>
        <time>2024-03-21T15:29:50+01:00</time>
      </trkpt>
      <trkpt lat="48.6615" lon="2.46375">
        <ele>84</ele>
        <time>2024-03-21T15:30:15+01:00</time>
      </trkpt>
      <trkpt lat="48.66167" lon="2.464">
        <ele>83</ele>
        <time>2024-03-21T15:33:54+01:00</time>
      </trkpt>
      <trkpt lat="48.66173" lon="2.46433">
        <ele>83</ele>
        <time>2024-03-21T15:35:10+01:00</time>
      </trkpt>
      <trkpt lat="48.66185" lon="2.46462">
        <ele>84</ele>
        <time>2024-03-21T15:35:42+01:00</time>
      </trkpt>
      <trkpt lat="48.66194" lon="2.46494">
        <ele>84</ele>
        <time>2024-03-21T15:36:03+01:00</time>
      </trkpt>
      <trkpt lat="48.66201" lon="2.46528">
        <ele>84</ele>
        <time>2024-03-21T15:36:28+01:00</time>
      </trkpt>
      <trkpt lat="48.66208" lon="2.4656">
        <ele>83</ele>
        <time>2024-03-21T15:36:48+01:00</time>
      </trkpt>
      <trkpt lat="48.66218" lon="2.46592">
        <ele>84</ele>
        <time>2024-03-21T15:37:15+01:00</time>
      </trkpt>
      <trkpt lat="48.66224" lon="2.46627">
        <ele>85</ele>
        <time>2024-03-21T15:37:39+01:00</time>
      </trkpt>
      <trkpt lat="48.66235" lon="2.46657">
        <ele>85</ele>
        <time>2024-03-21T15:38:01+01:00</time>
      </trkpt>
      <trkpt lat="48.66242" lon="2.4669">
        <ele>84</ele>
        <time>2024-03-21T15:38:28+01:00</time>
      </trkpt>
      <trkpt lat="48.6625" lon="2.46723">
        <ele>85</ele>
        <time>2024-03-21T15:38:49+01:00</time>
      </trkpt>
      <trkpt lat="48.6626" lon="2.46754">
        <ele>84</ele>
        <time>2024-03-21T15:39:09+01:00</time>
      </trkpt>
      <trkpt lat="48.66266" lon="2.46787">
        <ele>85</ele>
        <time>2024-03-21T15:39:28+01:00</time>
      </trkpt>
      <trkpt lat="48.66273" lon="2.46821">
        <ele>85</ele>
        <time>2024-03-21T15:39:51+01:00</time>
      </trkpt>
      <trkpt lat="48.66284" lon="2.46852">
        <ele>85</ele>
        <time>2024-03-21T15:40:12+01:00</time>
      </trkpt>
      <trkpt lat="48.66293" lon="2.46884">
        <ele>85</ele>
        <time>2024-03-21T15:40:38+01:00</time>
      </trkpt>
      <trkpt lat="48.66299" lon="2.46919">
        <ele>84</ele>
        <time>2024-03-21T15:41:04+01:00</time>
      </trkpt>
      <trkpt lat="48.66308" lon="2.4695">
        <ele>84</ele>
        <time>2024-03-21T15:41:26+01:00</time>
      </trkpt>
      <trkpt lat="48.66316" lon="2.46983">
        <ele>84</ele>
        <time>2024-03-21T15:41:50+01:00</time>
      </trkpt>
      <trkpt lat="48.66327" lon="2.47015">
        <ele>84</ele>
        <time>2024-03-21T15:42:14+01:00</time>
      </trkpt>
      <trkpt lat="48.66332" lon="2.47049">
        <ele>84</ele>
        <time>2024-03-21T15:42:39+01:00</time>
      </trkpt>
      <trkpt lat="48.66342" lon="2.47081">
        <ele>84</ele>
        <time>2024-03-21T15:43:02+01:00</time>
      </trkpt>
      <trkpt lat="48.66349" lon="2.47114">
        <ele>84</ele>
        <time>2024-03-21T15:43:26+01:00</time>
      </trkpt>
      <trkpt lat="48.66355" lon="2.47147">
        <ele>84</ele>
        <time>2024-03-21T15:43:59+01:00</time>
      </trkpt>
      <trkpt lat="48.66366" lon="2.47178">
        <ele>84</ele>
        <time>2024-03-21T15:44:29+01:00</time>
      </trkpt>
      <trkpt lat="48.66375" lon="2.47211">
        <ele>85</ele>
        <time>2024-03-21T15:44:53+01:00</time>
      </trkpt>
      <trkpt lat="48.66381" lon="2.47244">
        <ele>84</ele>
        <time>2024-03-21T15:45:18+01:00</time>
      </trkpt>
      <trkpt lat="48.66389" lon="2.47276">
        <ele>85</ele>
        <time>2024-03-21T15:45:40+01:00</time>
      </trkpt>
      <trkpt lat="48.66401" lon="2.47305">
        <ele>85</ele>
        <time>2024-03-21T15:46:03+01:00</time>
      </trkpt>
      <trkpt lat="48.66416" lon="2.47331">
        <ele>85</ele>
        <time>2024-03-21T15:46:31+01:00</time>
      </trkpt>
      <trkpt lat="48.66418" lon="2.47366">
        <ele>85</ele>
        <time>2024-03-21T15:49:32+01:00</time>
      </trkpt>
      <trkpt lat="48.66424" lon="2.474">
        <ele>84</ele>
        <time>2024-03-21T15:49:59+01:00</time>
      </trkpt>
      <trkpt lat="48.66431" lon="2.47433">
        <ele>85</ele>
        <time>2024-03-21T15:52:22+01:00</time>
      </trkpt>
      <trkpt lat="48.6644" lon="2.47465">
        <ele>85</ele>
        <time>2024-03-21T15:52:47+01:00</time>
      </trkpt>
      <trkpt lat="48.66448" lon="2.47497">
        <ele>85</ele>
        <time>2024-03-21T15:53:15+01:00</time>
      </trkpt>
      <trkpt lat="48.66457" lon="2.47529">
        <ele>83</ele>
        <time>2024-03-21T15:53:40+01:00</time>
      </trkpt>
      <trkpt lat="48.66467" lon="2.47561">
        <ele>86</ele>
        <time>2024-03-21T15:54:06+01:00</time>
      </trkpt>
      <trkpt lat="48.66476" lon="2.47594">
        <ele>82</ele>
        <time>2024-03-21T15:54:32+01:00</time>
      </trkpt>
      <trkpt lat="48.66482" lon="2.47627">
        <ele>85</ele>
        <time>2024-03-21T15:54:56+01:00</time>
      </trkpt>
      <trkpt lat="48.66491" lon="2.47659">
        <ele>85</ele>
        <time>2024-03-21T15:55:22+01:00</time>
      </trkpt>
      <trkpt lat="48.66499" lon="2.47692">
        <ele>85</ele>
        <time>2024-03-21T15:55:45+01:00</time>
      </trkpt>
      <trkpt lat="48.66507" lon="2.47725">
        <ele>86</ele>
        <time>2024-03-21T15:56:11+01:00</time>
      </trkpt>
      <trkpt lat="48.66513" lon="2.47758">
        <ele>82</ele>
        <time>2024-03-21T15:56:36+01:00</time>
      </trkpt>
      <trkpt lat="48.66522" lon="2.4779">
        <ele>84</ele>
        <time>2024-03-21T15:57:00+01:00</time>
      </trkpt>
      <trkpt lat="48.66532" lon="2.47822">
        <ele>84</ele>
        <time>2024-03-21T15:57:21+01:00</time>
      </trkpt>
      <trkpt lat="48.6654" lon="2.47854">
        <ele>84</ele>
        <time>2024-03-21T15:57:44+01:00</time>
      </trkpt>
      <trkpt lat="48.66546" lon="2.47887">
        <ele>85</ele>
        <time>2024-03-21T15:58:08+01:00</time>
      </trkpt>
      <trkpt lat="48.66556" lon="2.47918">
        <ele>86</ele>
        <time>2024-03-21T15:58:31+01:00</time>
      </trkpt>
      <trkpt lat="48.66564" lon="2.47951">
        <ele>84</ele>
        <time>2024-03-21T15:58:50+01:00</time>
      </trkpt>
      <trkpt lat="48.66575" lon="2.47983">
        <ele>83</ele>
        <time>2024-03-21T15:59:12+01:00</time>
      </trkpt>
      <trkpt lat="48.66587" lon="2.48012">
        <ele>85</ele>
        <time>2024-03-21T15:59:34+01:00</time>
      </trkpt>
      <trkpt lat="48.666" lon="2.4804">
        <ele>84</ele>
        <time>2024-03-21T15:59:57+01:00</time>
      </trkpt>
      <trkpt lat="48.66602" lon="2.48075">
        <ele>84</ele>
        <time>2024-03-21T16:00:18+01:00</time>
      </trkpt>
      <trkpt lat="48.66606" lon="2.48109">
        <ele>85</ele>
        <time>2024-03-21T16:00:41+01:00</time>
      </trkpt>
      <trkpt lat="48.66614" lon="2.48142">
        <ele>85</ele>
        <time>2024-03-21T16:01:02+01:00</time>
      </trkpt>
      <trkpt lat="48.66623" lon="2.48175">
        <ele>84</ele>
        <time>2024-03-21T16:01:24+01:00</time>
      </trkpt>
      <trkpt lat="48.66629" lon="2.48209">
        <ele>84</ele>
        <time>2024-03-21T16:01:47+01:00</time>
      </trkpt>
      <trkpt lat="48.6664" lon="2.48241">
        <ele>84</ele>
        <time>2024-03-21T16:02:08+01:00</time>
      </trkpt>
      <trkpt lat="48.66645" lon="2.48276">
        <ele>85</ele>
        <time>2024-03-21T16:02:32+01:00</time>
      </trkpt>
      <trkpt lat="48.66655" lon="2.48308">
        <ele>85</ele>
        <time>2024-03-21T16:02:53+01:00</time>
      </trkpt>
      <trkpt lat="48.66664" lon="2.4834">
        <ele>86</ele>
        <time>2024-03-21T16:03:14+01:00</time>
      </trkpt>
      <trkpt lat="48.66671" lon="2.48373">
        <ele>85</ele>
        <time>2024-03-21T16:04:45+01:00</time>
      </trkpt>
      <trkpt lat="48.66678" lon="2.48405">
        <ele>84</ele>
        <time>2024-03-21T16:05:08+01:00</time>
      </trkpt>
      <trkpt lat="48.66687" lon="2.48437">
        <ele>85</ele>
        <time>2024-03-21T16:05:32+01:00</time>
      </trkpt>
      <trkpt lat="48.66695" lon="2.48469">
        <ele>87</ele>
        <time>2024-03-21T16:07:43+01:00</time>
      </trkpt>
      <trkpt lat="48.66704" lon="2.48502">
        <ele>87</ele>
        <time>2024-03-21T16:08:09+01:00</time>
      </trkpt>
      <trkpt lat="48.66709" lon="2.48537">
        <ele>85</ele>
        <time>2024-03-21T16:08:30+01:00</time>
      </trkpt>
      <trkpt lat="48.66719" lon="2.48569">
        <ele>84</ele>
        <time>2024-03-21T16:09:01+01:00</time>
      </trkpt>
      <trkpt lat="48.66728" lon="2.48604">
        <ele>85</ele>
        <time>2024-03-21T16:09:28+01:00</time>
      </trkpt>
      <trkpt lat="48.66738" lon="2.48636">
        <ele>84</ele>
        <time>2024-03-21T16:09:55+01:00</time>
      </trkpt>
      <trkpt lat="48.66746" lon="2.48669">
        <ele>85</ele>
        <time>2024-03-21T16:10:18+01:00</time>
      </trkpt>
      <trkpt lat="48.66754" lon="2.48702">
        <ele>85</ele>
        <time>2024-03-21T16:10:40+01:00</time>
      </trkpt>
      <trkpt lat="48.66763" lon="2.48734">
        <ele>83</ele>
        <time>2024-03-21T16:11:07+01:00</time>
      </trkpt>
      <trkpt lat="48.66771" lon="2.48767">
        <ele>85</ele>
        <time>2024-03-21T16:11:30+01:00</time>
      </trkpt>
      <trkpt lat="48.66778" lon="2.488">
        <ele>86</ele>
        <time>2024-03-21T16:11:51+01:00</time>
      </trkpt>
      <trkpt lat="48.66786" lon="2.48832">
        <ele>86</ele>
        <time>2024-03-21T16:12:16+01:00</time>
      </trkpt>
      <trkpt lat="48.66798" lon="2.48863">
        <ele>87</ele>
        <time>2024-03-21T16:12:42+01:00</time>
      </trkpt>
      <trkpt lat="48.66802" lon="2.48897">
        <ele>83</ele>
        <time>2024-03-21T16:13:05+01:00</time>
      </trkpt>
      <trkpt lat="48.66815" lon="2.48928">
        <ele>84</ele>
        <time>2024-03-21T16:13:28+01:00</time>
      </trkpt>
      <trkpt lat="48.6682" lon="2.48962">
        <ele>84</ele>
        <time>2024-03-21T16:13:49+01:00</time>
      </trkpt>
      <trkpt lat="48.66826" lon="2.48995">
        <ele>84</ele>
        <time>2024-03-21T16:14:14+01:00</time>
      </trkpt>
      <trkpt lat="48.66837" lon="2.49026">
        <ele>84</ele>
        <time>2024-03-21T16:14:36+01:00</time>
      </trkpt>
      <trkpt lat="48.66844" lon="2.49059">
        <ele>86</ele>
        <time>2024-03-21T16:14:57+01:00</time>
      </trkpt>
      <trkpt lat="48.66854" lon="2.49091">
        <ele>85</ele>
        <time>2024-03-21T16:15:25+01:00</time>
      </trkpt>
      <trkpt lat="48.6686" lon="2.49126">
        <ele>86</ele>
        <time>2024-03-21T16:15:49+01:00</time>
      </trkpt>
      <trkpt lat="48.66871" lon="2.49156">
        <ele>86</ele>
        <time>2024-03-21T16:16:11+01:00</time>
      </trkpt>
      <trkpt lat="48.66878" lon="2.49189">
        <ele>85</ele>
        <time>2024-03-21T16:16:35+01:00</time>
      </trkpt>
      <trkpt lat="48.66886" lon="2.49223">
        <ele>84</ele>
        <time>2024-03-21T16:16:56+01:00</time>
      </trkpt>
      <trkpt lat="48.66892" lon="2.49256">
        <ele>84</ele>
        <time>2024-03-21T16:17:14+01:00</time>
      </trkpt>
      <trkpt lat="48.66905" lon="2.49284">
        <ele>83</ele>
        <time>2024-03-21T16:17:41+01:00</time>
      </trkpt>
      <trkpt lat="48.6691" lon="2.49318">
        <ele>83</ele>
        <time>2024-03-21T16:18:01+01:00</time>
      </trkpt>
      <trkpt lat="48.66918" lon="2.49351">
        <ele>85</ele>
        <time>2024-03-21T16:18:24+01:00</time>
      </trkpt>
      <trkpt lat="48.66927" lon="2.49383">
        <ele>83</ele>
        <time>2024-03-21T16:18:50+01:00</time>
      </trkpt>
      <trkpt lat="48.66935" lon="2.49415">
        <ele>83</ele>
        <time>2024-03-21T16:19:12+01:00</time>
      </trkpt>
      <trkpt lat="48.66937" lon="2.49449">
        <ele>84</ele>
        <time>2024-03-21T16:19:35+01:00</time>
      </trkpt>
      <trkpt lat="48.66951" lon="2.49477">
        <ele>86</ele>
        <time>2024-03-21T16:19:59+01:00</time>
      </trkpt>
      <trkpt lat="48.66931" lon="2.49493">
        <ele>85</ele>
        <time>2024-03-21T16:23:31+01:00</time>
      </trkpt>
      <trkpt lat="48.66907" lon="2.49483">
        <ele>87</ele>
        <time>2024-03-21T16:24:02+01:00</time>
      </trkpt>
      <trkpt lat="48.66885" lon="2.49471">
        <ele>84</ele>
        <time>2024-03-21T16:24:25+01:00</time>
      </trkpt>
      <trkpt lat="48.66863" lon="2.49461">
        <ele>84</ele>
        <time>2024-03-21T16:24:46+01:00</time>
      </trkpt>
      <trkpt lat="48.66842" lon="2.49447">
        <ele>83</ele>
        <time>2024-03-21T16:25:12+01:00</time>
      </trkpt>
      <trkpt lat="48.66822" lon="2.49433">
        <ele>86</ele>
        <time>2024-03-21T16:25:32+01:00</time>
      </trkpt>
      <trkpt lat="48.66801" lon="2.49419">
        <ele>84</ele>
        <time>2024-03-21T16:25:57+01:00</time>
      </trkpt>
      <trkpt lat="48.6678" lon="2.49407">
        <ele>84</ele>
        <time>2024-03-21T16:26:23+01:00</time>
      </trkpt>
      <trkpt lat="48.66757" lon="2.494">
        <ele>84</ele>
        <time>2024-03-21T16:26:48+01:00</time>
      </trkpt>
      <trkpt lat="48.66735" lon="2.49391">
        <ele>84</ele>
        <time>2024-03-21T16:27:07+01:00</time>
      </trkpt>
      <trkpt lat="48.66713" lon="2.49378">
        <ele>84</ele>
        <time>2024-03-21T16:27:32+01:00</time>
      </trkpt>
      <trkpt lat="48.6669" lon="2.49371">
        <ele>84</ele>
        <time>2024-03-21T16:28:02+01:00</time>
      </trkpt>
      <trkpt lat="48.66667" lon="2.49364">
        <ele>83</ele>
        <time>2024-03-21T16:28:25+01:00</time>
      </trkpt>
      <trkpt lat="48.66645" lon="2.49356">
        <ele>84</ele>
        <time>2024-03-21T16:28:47+01:00</time>
      </trkpt>
      <trkpt lat="48.66622" lon="2.49345">
        <ele>84</ele>
        <time>2024-03-21T16:29:11+01:00</time>
      </trkpt>
      <trkpt lat="48.66598" lon="2.49337">
        <ele>85</ele>
        <time>2024-03-21T16:29:33+01:00</time>
      </trkpt>
      <trkpt lat="48.66577" lon="2.49319">
        <ele>83</ele>
        <time>2024-03-21T16:29:55+01:00</time>
      </trkpt>
      <trkpt lat="48.66556" lon="2.49307">
        <ele>83</ele>
        <time>2024-03-21T16:30:19+01:00</time>
      </trkpt>
      <trkpt lat="48.66534" lon="2.49301">
        <ele>85</ele>
        <time>2024-03-21T16:30:42+01:00</time>
      </trkpt>
      <trkpt lat="48.66511" lon="2.49299">
        <ele>84</ele>
        <time>2024-03-21T16:31:05+01:00</time>
      </trkpt>
      <trkpt lat="48.66489" lon="2.4929">
        <ele>85</ele>
        <time>2024-03-21T16:31:27+01:00</time>
      </trkpt>
      <trkpt lat="48.66467" lon="2.49284">
        <ele>82</ele>
        <time>2024-03-21T16:31:47+01:00</time>
      </trkpt>
      <trkpt lat="48.66444" lon="2.49279">
        <ele>83</ele>
        <time>2024-03-21T16:32:12+01:00</time>
      </trkpt>
      <trkpt lat="48.66421" lon="2.49272">
        <ele>83</ele>
        <time>2024-03-21T16:32:33+01:00</time>
      </trkpt>
      <trkpt lat="48.66399" lon="2.49268">
        <ele>84</ele>
        <time>2024-03-21T16:32:52+01:00</time>
      </trkpt>
      <trkpt lat="48.66376" lon="2.49264">
        <ele>84</ele>
        <time>2024-03-21T16:33:13+01:00</time>
      </trkpt>
      <trkpt lat="48.66354" lon="2.49255">
        <ele>83</ele>
        <time>2024-03-21T16:33:32+01:00</time>
      </trkpt>
      <trkpt lat="48.66332" lon="2.49258">
        <ele>84</ele>
        <time>2024-03-21T16:33:54+01:00</time>
      </trkpt>
      <trkpt lat="48.6631" lon="2.49271">
        <ele>84</ele>
        <time>2024-03-21T16:34:11+01:00</time>
      </trkpt>
      <trkpt lat="48.66287" lon="2.49276">
        <ele>84</ele>
        <time>2024-03-21T16:34:32+01:00</time>
      </trkpt>
      <trkpt lat="48.66264" lon="2.49278">
        <ele>84</ele>
        <time>2024-03-21T16:34:53+01:00</time>
      </trkpt>
      <trkpt lat="48.66241" lon="2.49282">
        <ele>84</ele>
        <time>2024-03-21T16:35:13+01:00</time>
      </trkpt>
      <trkpt lat="48.66218" lon="2.49279">
        <ele>84</ele>
        <time>2024-03-21T16:35:32+01:00</time>
      </trkpt>
      <trkpt lat="48.66194" lon="2.49284">
        <ele>84</ele>
        <time>2024-03-21T16:35:53+01:00</time>
      </trkpt>
      <trkpt lat="48.66172" lon="2.49278">
        <ele>84</ele>
        <time>2024-03-21T16:36:14+01:00</time>
      </trkpt>
      <trkpt lat="48.66149" lon="2.49277">
        <ele>83</ele>
        <time>2024-03-21T16:36:36+01:00</time>
      </trkpt>
      <trkpt lat="48.66126" lon="2.4928">
        <ele>84</ele>
        <time>2024-03-21T16:37:00+01:00</time>
      </trkpt>
      <trkpt lat="48.66103" lon="2.49278">
        <ele>84</ele>
        <time>2024-03-21T16:37:18+01:00</time>
      </trkpt>
      <trkpt lat="48.6608" lon="2.49284">
        <ele>84</ele>
        <time>2024-03-21T16:37:38+01:00</time>
      </trkpt>
      <trkpt lat="48.66058" lon="2.49295">
        <ele>84</ele>
        <time>2024-03-21T16:37:59+01:00</time>
      </trkpt>
      <trkpt lat="48.66034" lon="2.49302">
        <ele>84</ele>
        <time>2024-03-21T16:38:21+01:00</time>
      </trkpt>
      <trkpt lat="48.66013" lon="2.49311">
        <ele>84</ele>
        <time>2024-03-21T16:38:42+01:00</time>
      </trkpt>
      <trkpt lat="48.65993" lon="2.49329">
        <ele>84</ele>
        <time>2024-03-21T16:39:05+01:00</time>
      </trkpt>
      <trkpt lat="48.65976" lon="2.49353">
        <ele>83</ele>
        <time>2024-03-21T16:39:28+01:00</time>
      </trkpt>
      <trkpt lat="48.65954" lon="2.49361">
        <ele>84</ele>
        <time>2024-03-21T16:39:49+01:00</time>
      </trkpt>
      <trkpt lat="48.65941" lon="2.49332">
        <ele>84</ele>
        <time>2024-03-21T16:40:12+01:00</time>
      </trkpt>
      <trkpt lat="48.65931" lon="2.49301">
        <ele>83</ele>
        <time>2024-03-21T16:40:32+01:00</time>
      </trkpt>
      <trkpt lat="48.65918" lon="2.49274">
        <ele>83</ele>
        <time>2024-03-21T16:40:57+01:00</time>
      </trkpt>
      <trkpt lat="48.65897" lon="2.49259">
        <ele>83</ele>
        <time>2024-03-21T16:41:17+01:00</time>
      </trkpt>
      <trkpt lat="48.65877" lon="2.49239">
        <ele>83</ele>
        <time>2024-03-21T16:41:39+01:00</time>
      </trkpt>
      <trkpt lat="48.65854" lon="2.49238">
        <ele>84</ele>
        <time>2024-03-21T16:42:00+01:00</time>
      </trkpt>
      <trkpt lat="48.65829" lon="2.49243">
        <ele>84</ele>
        <time>2024-03-21T16:42:22+01:00</time>
      </trkpt>
      <trkpt lat="48.65807" lon="2.4925">
        <ele>84</ele>
        <time>2024-03-21T16:42:44+01:00</time>
      </trkpt>
      <trkpt lat="48.65784" lon="2.49252">
        <ele>83</ele>
        <time>2024-03-21T16:43:04+01:00</time>
      </trkpt>
      <trkpt lat="48.65761" lon="2.49257">
        <ele>83</ele>
        <time>2024-03-21T16:43:26+01:00</time>
      </trkpt>
      <trkpt lat="48.65738" lon="2.49262">
        <ele>84</ele>
        <time>2024-03-21T16:43:50+01:00</time>
      </trkpt>
      <trkpt lat="48.65715" lon="2.49268">
        <ele>84</ele>
        <time>2024-03-21T16:44:09+01:00</time>
      </trkpt>
      <trkpt lat="48.65692" lon="2.49269">
        <ele>83</ele>
        <time>2024-03-21T16:44:32+01:00</time>
      </trkpt>
      <trkpt lat="48.6567" lon="2.49275">
        <ele>84</ele>
        <time>2024-03-21T16:44:53+01:00</time>
      </trkpt>
      <trkpt lat="48.65647" lon="2.49281">
        <ele>84</ele>
        <time>2024-03-21T16:45:14+01:00</time>
      </trkpt>
      <trkpt lat="48.65623" lon="2.49284">
        <ele>83</ele>
        <time>2024-03-21T16:45:37+01:00</time>
      </trkpt>
      <trkpt lat="48.65601" lon="2.49288">
        <ele>83</ele>
        <time>2024-03-21T16:45:59+01:00</time>
      </trkpt>
      <trkpt lat="48.65579" lon="2.49296">
        <ele>83</ele>
        <time>2024-03-21T16:46:20+01:00</time>
      </trkpt>
      <trkpt lat="48.65556" lon="2.49302">
        <ele>84</ele>
        <time>2024-03-21T16:46:42+01:00</time>
      </trkpt>
    </trkseg>
  </trk>
</gpx>